Sainte-Anne-De-Bellevue, Canada
Current Conditions -  °F | °C
As of 2:00 PM on Sunday 21 Dec 2014 (Local Time) from CYUL Reporting Station
Light Snow Light Snow  
Wind Chill:   Ceiling: 2300
Heat Index: 18°   Visibility: 12mi
Dew Point: 12°   Wind: 6mph
Humidity: 79%   Direction: 40°NE
Pressure: 30.36"   Gusts: NA
Location:  45.48°N, 73.9°W
Report Text: CYUL 211900Z 04005KT 12SM -SN FEW014 OVC023 M08/M11 A3036 RMK SF1SC8 SF TR SLP285
Loading
Personal Weather Stations






























Interactive Weather Map New forecast layout! Learn more

10-Day Weather Forecast

Advertisements
Track Severe Weather on mobile